createdAt,value
2022-12-13T00:01:11.595Z,23.87
2022-12-13T00:04:15.394Z,24.20
2022-12-13T00:07:19.040Z,24.27
2022-12-13T00:10:22.635Z,24.90
2022-12-13T00:13:27.774Z,22.60
2022-12-13T00:16:31.520Z,23.27
2022-12-13T00:19:35.147Z,25.50
2022-12-13T00:22:38.788Z,24.40
2022-12-13T00:25:42.406Z,22.20
2022-12-13T00:28:49.587Z,23.57
2022-12-13T00:32:01.341Z,21.77
2022-12-13T00:35:05.656Z,24.63
2022-12-13T00:38:11.525Z,22.67
2022-12-13T00:41:18.491Z,23.37
2022-12-13T00:44:23.500Z,22.77
2022-12-13T00:47:27.908Z,23.10
2022-12-13T00:50:31.482Z,22.97
2022-12-13T00:53:35.503Z,22.87
2022-12-13T00:56:39.764Z,22.90
2022-12-13T00:59:44.753Z,23.37
2022-12-13T01:02:48.298Z,22.87
2022-12-13T01:09:24.223Z,23.83
2022-12-13T01:12:27.886Z,21.83
2022-12-13T01:15:32.911Z,22.93
2022-12-13T01:18:37.943Z,23.50
2022-12-13T01:21:41.656Z,21.57
2022-12-13T01:24:45.862Z,23.80
2022-12-13T01:27:49.469Z,22.57
2022-12-13T01:30:58.991Z,22.83
2022-12-13T01:34:10.722Z,23.00
2022-12-13T01:37:14.446Z,23.20
2022-12-13T01:40:18.284Z,21.67
2022-12-13T01:43:21.972Z,22.87
2022-12-13T01:46:26.962Z,24.00
2022-12-13T01:49:30.675Z,22.83
2022-12-13T01:52:36.105Z,23.10
2022-12-13T01:55:42.134Z,23.37
2022-12-13T01:58:48.678Z,22.83
2022-12-13T02:01:54.228Z,22.30
2022-12-13T02:05:11.445Z,21.60
2022-12-13T02:08:19.664Z,22.77
2022-12-13T02:11:24.001Z,23.03
2022-12-13T02:14:27.602Z,22.10
2022-12-13T02:17:53.620Z,22.20
2022-12-13T02:21:20.589Z,23.13
2022-12-13T02:25:04.534Z,21.57
2022-12-13T02:28:33.854Z,21.13
2022-12-13T02:31:52.260Z,20.53
2022-12-13T02:35:06.754Z,21.33
2022-12-13T02:38:24.444Z,21.07
2022-12-13T02:41:37.808Z,22.57
2022-12-13T02:44:48.353Z,22.70
2022-12-13T02:47:57.735Z,21.27
2022-12-13T02:51:06.270Z,21.47
2022-12-13T02:54:10.041Z,22.43
2022-12-13T02:57:32.886Z,22.57
2022-12-13T03:00:52.424Z,21.47
2022-12-13T03:04:11.428Z,22.77
2022-12-13T03:07:26.486Z,23.80
2022-12-13T03:10:39.030Z,23.37
2022-12-13T03:13:59.357Z,22.53
2022-12-13T03:17:07.570Z,23.33
2022-12-13T03:20:22.854Z,22.83
2022-12-13T03:23:28.779Z,23.17
2022-12-13T03:26:32.585Z,22.00
2022-12-13T03:29:36.260Z,22.23
2022-12-13T03:32:39.886Z,20.73
2022-12-13T03:35:46.230Z,22.67
2022-12-13T03:38:53.399Z,22.70
2022-12-13T03:41:57.156Z,23.13
2022-12-13T03:45:00.761Z,22.60
2022-12-13T03:48:04.697Z,22.03
2022-12-13T03:51:09.706Z,22.53
2022-12-13T03:54:13.315Z,21.73
2022-12-13T03:57:17.014Z,22.20
2022-12-13T04:00:21.010Z,21.83
2022-12-13T04:03:24.684Z,20.93
2022-12-13T04:06:33.005Z,21.30
2022-12-13T04:09:37.063Z,21.77
2022-12-13T04:13:00.393Z,21.63
2022-12-13T04:16:04.599Z,21.10
2022-12-13T04:19:08.460Z,21.37
2022-12-13T04:22:13.552Z,18.60
2022-12-13T04:25:17.594Z,17.83
2022-12-13T04:28:21.841Z,20.17
2022-12-13T04:31:26.408Z,21.30
2022-12-13T04:34:36.547Z,18.93
2022-12-13T04:37:43.515Z,18.50
2022-12-13T04:40:47.383Z,18.40
2022-12-13T04:43:53.805Z,19.83
2022-12-13T04:47:00.758Z,18.53
2022-12-13T04:50:05.794Z,19.37
2022-12-13T04:53:17.048Z,18.87
2022-12-13T04:56:21.293Z,18.47
2022-12-13T04:59:25.082Z,20.53
2022-12-13T05:02:29.135Z,20.73
2022-12-13T05:05:32.917Z,20.77
2022-12-13T05:08:39.221Z,22.27
2022-12-13T05:11:45.684Z,20.67
2022-12-13T05:14:49.716Z,20.53
2022-12-13T05:17:53.334Z,19.67
2022-12-13T05:20:57.195Z,19.90
2022-12-13T05:24:02.290Z,19.77
2022-12-13T05:27:24.595Z,18.33
2022-12-13T05:30:29.445Z,21.03
2022-12-13T05:33:33.346Z,21.73
2022-12-13T05:36:37.129Z,20.87
2022-12-13T05:39:42.161Z,22.13
2022-12-13T05:42:45.750Z,25.07
2022-12-13T05:45:49.475Z,29.43
2022-12-13T05:48:53.206Z,22.30
2022-12-13T05:51:56.867Z,21.63
2022-12-13T05:55:01.917Z,22.07
2022-12-13T05:58:06.539Z,22.50
2022-12-13T06:01:18.072Z,22.70
2022-12-13T06:04:22.085Z,21.80
2022-12-13T06:07:26.762Z,19.60
2022-12-13T06:10:34.367Z,21.10
2022-12-13T06:13:42.421Z,20.27
2022-12-13T06:16:46.701Z,21.17
2022-12-13T06:19:50.932Z,20.50
2022-12-13T06:22:55.572Z,21.83
2022-12-13T06:26:03.559Z,21.00
2022-12-13T06:29:07.166Z,20.47
2022-12-13T06:32:10.914Z,22.47
2022-12-13T06:35:28.787Z,20.47
2022-12-13T06:38:33.945Z,18.90
2022-12-13T06:41:38.942Z,22.20
2022-12-13T06:44:43.642Z,20.53
2022-12-13T06:47:47.342Z,19.13
2022-12-13T06:50:50.980Z,19.37
2022-12-13T06:53:55.165Z,18.53
2022-12-13T06:57:00.460Z,20.10
2022-12-13T07:00:05.760Z,20.80
2022-12-13T07:03:11.181Z,19.77
2022-12-13T07:06:18.194Z,19.13
2022-12-13T07:09:22.045Z,19.53
2022-12-13T07:12:27.214Z,20.47
2022-12-13T07:15:35.505Z,19.83
2022-12-13T07:18:39.325Z,19.70
2022-12-13T07:21:43.540Z,20.60
2022-12-13T07:24:47.162Z,20.47
2022-12-13T07:28:01.470Z,19.03
2022-12-13T07:31:09.975Z,20.13
2022-12-13T07:34:15.709Z,18.37
2022-12-13T07:37:29.988Z,19.23
2022-12-13T07:40:35.414Z,18.67
2022-12-13T07:43:40.909Z,18.97
2022-12-13T07:46:44.747Z,19.83
2022-12-13T07:49:48.903Z,17.23
2022-12-13T07:52:53.040Z,20.33
2022-12-13T07:55:56.768Z,19.57
2022-12-13T07:59:01.815Z,18.57
2022-12-13T08:02:06.852Z,21.57
2022-12-13T08:05:26.404Z,21.67
2022-12-13T08:08:32.102Z,20.17
2022-12-13T08:11:36.037Z,20.43
2022-12-13T08:14:44.232Z,21.17
2022-12-13T08:17:47.939Z,23.93
2022-12-13T08:20:51.562Z,24.60
2022-12-13T08:23:55.189Z,21.33
2022-12-13T08:27:02.429Z,23.97
2022-12-13T08:30:09.968Z,24.10
2022-12-13T08:33:13.773Z,25.57
2022-12-13T08:36:19.022Z,25.87
2022-12-13T08:39:22.647Z,23.60
2022-12-13T08:42:26.250Z,25.80
2022-12-13T08:45:34.283Z,25.63
2022-12-13T08:48:44.331Z,26.77
2022-12-13T08:51:48.943Z,27.77
2022-12-13T08:54:52.859Z,28.77
2022-12-13T08:57:57.996Z,30.43
2022-12-13T09:01:09.020Z,31.00
2022-12-13T09:04:12.814Z,28.67
2022-12-13T09:07:16.565Z,29.20
2022-12-13T09:10:26.265Z,32.77
2022-12-13T09:13:33.323Z,30.07
2022-12-13T09:16:39.138Z,30.70
2022-12-13T09:19:43.121Z,30.07
2022-12-13T09:22:46.828Z,31.13
2022-12-13T09:26:04.870Z,31.53
2022-12-13T09:29:11.387Z,32.47
2022-12-13T09:32:16.966Z,30.60
2022-12-13T09:35:20.928Z,31.17
2022-12-13T09:38:24.719Z,29.33
2022-12-13T09:41:34.909Z,30.50
2022-12-13T09:45:02.138Z,32.03
2022-12-13T09:48:13.367Z,32.07
2022-12-13T09:51:28.384Z,30.73
2022-12-13T09:54:48.180Z,32.57
2022-12-13T09:57:54.495Z,29.63
2022-12-13T10:01:00.515Z,32.73
2022-12-13T10:04:12.905Z,29.80
2022-12-13T10:07:22.137Z,31.03
2022-12-13T10:10:26.687Z,34.40
2022-12-13T10:13:42.870Z,32.60
2022-12-13T10:16:52.324Z,31.00
2022-12-13T10:19:57.351Z,32.33
2022-12-13T10:23:31.230Z,32.90
2022-12-13T10:26:25.343Z,35.03
2022-12-13T10:29:29.037Z,33.33
2022-12-13T10:32:37.770Z,34.33
2022-12-13T10:35:45.212Z,33.93
2022-12-13T10:38:50.729Z,35.90
2022-12-13T10:42:06.062Z,33.50
2022-12-13T10:45:23.580Z,33.37
2022-12-13T10:48:38.967Z,34.57
2022-12-13T10:51:45.019Z,32.93
2022-12-13T10:54:51.955Z,32.97
2022-12-13T10:58:09.628Z,34.37
2022-12-13T11:01:24.005Z,34.03
2022-12-13T11:04:32.134Z,34.23
2022-12-13T11:07:37.487Z,35.27
2022-12-13T11:10:41.474Z,35.83
2022-12-13T11:13:52.301Z,34.07
2022-12-13T11:17:01.201Z,37.87
2022-12-13T11:20:18.882Z,38.30
2022-12-13T11:23:31.301Z,39.50
2022-12-13T11:26:39.658Z,37.87
2022-12-13T11:30:10.074Z,38.93
2022-12-13T11:33:27.982Z,37.80
2022-12-13T11:36:43.703Z,38.67
2022-12-13T11:40:01.030Z,37.03
2022-12-13T11:43:17.654Z,48.30
2022-12-13T11:46:32.321Z,50.53
2022-12-13T11:49:42.787Z,54.03
2022-12-13T11:52:53.281Z,39.83
2022-12-13T11:56:07.457Z,47.37
2022-12-13T11:59:29.192Z,36.47
2022-12-13T12:02:37.324Z,35.67
2022-12-13T12:05:49.018Z,39.63
2022-12-13T12:09:03.657Z,38.07
2022-12-13T12:12:22.065Z,33.10
2022-12-13T12:15:33.878Z,33.97
2022-12-13T12:18:45.925Z,40.90
2022-12-13T12:22:14.993Z,34.17
2022-12-13T12:25:36.846Z,30.33
2022-12-13T12:29:11.921Z,36.33
2022-12-13T12:32:33.405Z,35.07
2022-12-13T12:35:56.695Z,36.87
2022-12-13T12:39:27.120Z,29.80
2022-12-13T12:47:08.577Z,28.80
2022-12-13T12:50:34.552Z,41.30
2022-12-13T12:53:48.008Z,31.70
2022-12-13T12:57:03.545Z,30.23
2022-12-13T13:00:15.608Z,30.97
2022-12-13T13:03:25.570Z,29.27
2022-12-13T13:06:35.915Z,33.47
2022-12-13T13:09:41.766Z,32.13
2022-12-13T13:12:46.206Z,28.67
2022-12-13T13:15:58.331Z,31.13
2022-12-13T13:19:04.527Z,30.07
2022-12-13T13:22:34.296Z,33.77
2022-12-13T13:29:43.699Z,30.23
2022-12-13T13:32:49.202Z,28.30
2022-12-13T13:35:56.857Z,31.33
2022-12-13T13:39:01.307Z,30.57
2022-12-13T13:42:20.038Z,31.40
2022-12-13T13:45:26.998Z,28.97
2022-12-13T13:48:54.271Z,28.40
2022-12-13T13:52:27.276Z,28.00
2022-12-13T13:55:55.872Z,30.77
2022-12-13T13:59:44.714Z,28.30
2022-12-13T14:03:48.122Z,29.90
2022-12-13T14:07:34.821Z,29.27
2022-12-13T14:11:02.096Z,32.30
2022-12-13T14:15:01.136Z,28.53
2022-12-13T14:18:55.759Z,29.87
2022-12-13T14:22:18.654Z,29.00
2022-12-13T14:26:01.313Z,31.27
2022-12-13T14:29:14.598Z,32.00
2022-12-13T14:32:26.618Z,28.73
2022-12-13T14:35:34.418Z,29.00
2022-12-13T14:38:39.623Z,28.50
2022-12-13T14:41:48.013Z,29.07
2022-12-13T14:44:51.933Z,29.70
2022-12-13T14:47:58.422Z,30.30
2022-12-13T14:51:02.339Z,28.87
2022-12-13T14:54:21.142Z,30.63
2022-12-13T14:57:31.173Z,29.77
2022-12-13T15:00:40.778Z,28.63
2022-12-13T15:03:44.708Z,29.43
2022-12-13T15:06:55.582Z,29.93
2022-12-13T15:10:04.535Z,42.40
2022-12-13T15:13:19.576Z,36.40
2022-12-13T15:16:28.128Z,32.53
2022-12-13T15:19:36.266Z,33.87
2022-12-13T15:22:42.941Z,34.47
2022-12-13T15:25:51.195Z,33.47
2022-12-13T15:28:59.853Z,33.20
2022-12-13T15:32:05.651Z,33.13
2022-12-13T15:35:17.790Z,35.10
2022-12-13T15:38:28.804Z,39.27
2022-12-13T15:41:43.024Z,36.93
2022-12-13T15:44:52.571Z,37.03
2022-12-13T15:47:56.961Z,32.67
2022-12-13T15:51:13.129Z,31.80
2022-12-13T15:54:33.154Z,34.27
2022-12-13T15:57:52.422Z,32.80
2022-12-13T16:00:56.064Z,32.10
2022-12-13T16:04:03.592Z,32.93
2022-12-13T16:07:07.630Z,32.77
2022-12-13T16:10:20.826Z,32.23
2022-12-13T16:13:29.753Z,31.80
2022-12-13T16:16:33.812Z,31.80
2022-12-13T16:19:37.773Z,31.77
2022-12-13T16:22:42.148Z,33.37
2022-12-13T16:25:46.253Z,32.53
2022-12-13T16:28:51.656Z,31.63
2022-12-13T16:32:01.506Z,33.60
2022-12-13T16:35:12.062Z,32.83
2022-12-13T16:38:26.077Z,36.80
2022-12-13T16:41:30.850Z,42.00
2022-12-13T16:44:38.985Z,40.73
2022-12-13T16:47:48.550Z,42.77
2022-12-13T16:50:57.458Z,37.70
2022-12-13T16:54:01.463Z,31.90
2022-12-13T16:57:05.433Z,30.30
2022-12-13T17:00:14.548Z,29.63
2022-12-13T17:03:18.138Z,29.77
2022-12-13T17:06:25.549Z,29.67
2022-12-13T17:09:29.190Z,30.53
2022-12-13T17:12:32.782Z,29.53
2022-12-13T17:15:38.945Z,27.60
2022-12-13T17:18:42.756Z,30.87
2022-12-13T17:21:46.511Z,35.60
2022-12-13T17:24:50.273Z,35.10
2022-12-13T17:27:53.991Z,32.83
2022-12-13T17:31:08.682Z,32.20
2022-12-13T17:34:12.488Z,31.47
2022-12-13T17:37:16.170Z,31.33
2022-12-13T17:40:20.204Z,29.77
2022-12-13T17:43:33.089Z,30.93
2022-12-13T17:46:39.283Z,30.17
2022-12-13T17:49:42.909Z,29.20
2022-12-13T17:52:46.502Z,30.50
2022-12-13T17:55:57.919Z,32.00
2022-12-13T17:59:01.576Z,32.70
2022-12-13T18:02:07.055Z,32.03
2022-12-13T18:05:17.718Z,33.33
2022-12-13T18:08:21.552Z,33.40
2022-12-13T18:11:34.032Z,31.83
2022-12-13T18:14:39.063Z,31.63
2022-12-13T18:18:10.692Z,32.73
2022-12-13T18:21:10.315Z,33.07
2022-12-13T18:24:14.276Z,31.10
2022-12-13T18:27:17.941Z,33.23
2022-12-13T18:30:22.058Z,39.43
2022-12-13T18:33:27.615Z,38.43
2022-12-13T18:36:31.746Z,38.17
2022-12-13T18:39:36.053Z,40.33
2022-12-13T18:42:39.794Z,42.73
2022-12-13T18:45:43.557Z,40.37
2022-12-13T18:48:49.048Z,36.60
2022-12-13T18:51:52.789Z,34.13
2022-12-13T18:54:56.510Z,34.87
2022-12-13T18:58:00.724Z,32.40
2022-12-13T19:01:05.701Z,30.43
2022-12-13T19:04:12.702Z,30.07
2022-12-13T19:07:16.570Z,31.10
2022-12-13T19:10:20.526Z,32.10
2022-12-13T19:13:26.450Z,37.53
2022-12-13T19:16:30.473Z,36.57
2022-12-13T19:19:35.717Z,35.57
2022-12-13T19:22:39.795Z,35.43
2022-12-13T19:25:43.740Z,37.37
2022-12-13T19:28:48.406Z,39.13
2022-12-13T19:31:52.405Z,33.87
2022-12-13T19:34:57.458Z,31.57
2022-12-13T19:38:01.766Z,32.37
2022-12-13T19:41:10.096Z,32.13
2022-12-13T19:44:13.774Z,31.73
2022-12-13T19:47:17.722Z,33.60
2022-12-13T19:50:23.043Z,36.97
2022-12-13T19:53:27.054Z,41.23
2022-12-13T19:56:30.987Z,38.43
2022-12-13T19:59:34.613Z,37.80
2022-12-13T20:02:38.726Z,36.17
2022-12-13T20:05:45.792Z,46.67
2022-12-13T20:08:51.855Z,53.63
2022-12-13T20:11:55.583Z,41.17
2022-12-13T20:15:01.133Z,37.33
2022-12-13T20:18:05.006Z,38.93
2022-12-13T20:21:14.608Z,38.47
2022-12-13T20:24:18.954Z,39.17
2022-12-13T20:27:22.844Z,38.80
2022-12-13T20:30:27.674Z,38.03
2022-12-13T20:33:31.629Z,37.27
2022-12-13T20:36:37.894Z,37.30
2022-12-13T20:39:42.281Z,36.00
2022-12-13T20:42:46.299Z,34.93
2022-12-13T20:45:49.967Z,36.10
2022-12-13T20:48:55.224Z,35.60
2022-12-13T20:52:00.230Z,34.60
2022-12-13T20:55:03.897Z,32.10
2022-12-13T20:58:07.547Z,32.47
2022-12-13T21:01:17.915Z,29.67
2022-12-13T21:04:21.842Z,29.43
2022-12-13T21:07:40.678Z,30.83
2022-12-13T21:10:44.245Z,31.67
2022-12-13T21:13:48.331Z,29.33
2022-12-13T21:16:54.199Z,28.47
2022-12-13T21:19:57.891Z,32.23
2022-12-13T21:23:03.682Z,32.57
2022-12-13T21:26:08.335Z,34.47
2022-12-13T21:29:13.693Z,33.07
2022-12-13T21:32:17.332Z,32.70
2022-12-13T21:35:20.915Z,30.97
2022-12-13T21:38:26.065Z,32.97
2022-12-13T21:41:30.288Z,30.40
2022-12-13T21:44:33.882Z,30.63
2022-12-13T21:47:37.470Z,31.20
2022-12-13T21:50:41.058Z,28.07
2022-12-13T21:53:46.841Z,29.53
2022-12-13T21:57:07.969Z,25.70
2022-12-13T22:00:13.220Z,26.57
2022-12-13T22:03:16.978Z,27.30
2022-12-13T22:06:20.607Z,26.83
2022-12-13T22:09:25.769Z,25.40
2022-12-13T22:12:36.038Z,26.17
2022-12-13T22:15:39.635Z,26.40
2022-12-13T22:18:43.255Z,25.43
2022-12-13T22:21:46.861Z,25.93
2022-12-13T22:24:53.794Z,28.07
2022-12-13T22:27:57.575Z,27.90
2022-12-13T22:31:01.143Z,24.80
2022-12-13T22:34:04.862Z,25.70
2022-12-13T22:37:08.590Z,27.37
2022-12-13T22:40:14.415Z,27.57
2022-12-13T22:43:20.647Z,26.73
2022-12-13T22:46:24.730Z,25.10
2022-12-13T22:49:28.513Z,26.37
2022-12-13T22:52:34.170Z,25.50
2022-12-13T22:55:39.841Z,26.40
2022-12-13T22:58:44.007Z,25.03
2022-12-13T23:01:48.007Z,26.03
2022-12-13T23:04:51.590Z,27.37
2022-12-13T23:07:55.178Z,25.77
2022-12-13T23:11:19.112Z,25.80
2022-12-13T23:14:30.008Z,25.17
2022-12-13T23:17:33.647Z,24.80
2022-12-13T23:20:37.246Z,23.80
2022-12-13T23:23:41.435Z,24.27
2022-12-13T23:26:46.391Z,26.47
2022-12-13T23:29:50.255Z,24.53
2022-12-13T23:32:53.782Z,23.37
2022-12-13T23:36:06.297Z,24.67
2022-12-13T23:39:13.233Z,24.83
2022-12-13T23:42:18.181Z,24.63
2022-12-13T23:45:40.729Z,24.67
2022-12-13T23:48:46.038Z,23.70
2022-12-13T23:51:49.605Z,24.03
2022-12-13T23:54:53.298Z,23.23
2022-12-13T23:57:58.307Z,22.00
